Time;durP1;ratioP1;P1;durP2;ratioP2;P2;SDS_P1;SDS_P2;PMS_P1;PMS_P2;Temp;Humidity;BMP_temperature;BMP_pressure;BME280_temperature;BME280_humidity;BME280_pressure;Samples;Min_cycle;Max_cycle;Signal;HPM_P1;HPM_P2
2022/02/22 00:02:14;;;;;;;44.65;23.88;;;;;;;;;;5065257;28;20431;-45
2022/02/22 00:04:43;;;;;;;22.65;12.98;;;;;;;;;;5063981;28;20028;-44
2022/02/22 00:07:10;;;;;;;25.58;15.13;;;;;;;;;;5065273;28;20020;-45
2022/02/22 00:09:36;;;;;;;42.13;24.45;;;;;;;;;;5064739;28;20031;-45
2022/02/22 00:12:03;;;;;;;27.15;16.52;;;;;;;;;;5065140;28;20795;-45
2022/02/22 00:14:29;;;;;;;26.90;15.45;;;;;;;;;;5065005;28;20039;-44
2022/02/22 00:16:55;;;;;;;32.85;16.00;;;;;;;;;;5064882;28;20412;-47
2022/02/22 00:19:28;;;;;;;20.05;10.30;;;;;;;;;;5065155;28;20361;-45
2022/02/22 00:21:55;;;;;;;20.02;11.65;;;;;;;;;;5064685;28;20020;-46
2022/02/22 00:24:21;;;;;;;28.13;15.95;;;;;;;;;;5064523;28;20025;-44
2022/02/22 00:26:47;;;;;;;25.38;13.77;;;;;;;;;;5064548;28;20067;-44
2022/02/22 00:29:14;;;;;;;17.00;9.93;;;;;;;;;;5064461;28;20057;-45
2022/02/22 00:31:40;;;;;;;19.55;11.07;;;;;;;;;;5064462;28;20025;-45
2022/02/22 00:34:06;;;;;;;23.80;13.10;;;;;;;;;;5064558;28;20028;-45
2022/02/22 00:36:35;;;;;;;20.27;10.90;;;;;;;;;;5064956;28;20028;-46
2022/02/22 00:39:03;;;;;;;26.25;13.93;;;;;;;;;;5065603;28;20098;-44
2022/02/22 00:41:29;;;;;;;25.73;14.68;;;;;;;;;;5064389;28;20077;-45
2022/02/22 00:43:55;;;;;;;20.77;13.80;;;;;;;;;;5064391;28;20026;-46
2022/02/22 00:46:21;;;;;;;41.88;23.25;;;;;;;;;;5064276;28;20431;-45
2022/02/22 00:48:47;;;;;;;31.35;17.20;;;;;;;;;;5064471;28;20033;-45
2022/02/22 00:51:14;;;;;;;29.63;17.73;;;;;;;;;;5064310;28;20085;-46
2022/02/22 00:53:40;;;;;;;31.30;16.80;;;;;;;;;;5069191;28;20020;-46
2022/02/22 00:56:06;;;;;;;29.98;15.98;;;;;;;;;;5093665;28;20107;-47
2022/02/22 00:58:34;;;;;;;21.17;12.00;;;;;;;;;;5094826;28;20059;-47
2022/02/22 01:01:01;;;;;;;19.83;12.40;;;;;;;;;;5094880;28;20647;-47
2022/02/22 01:03:27;;;;;;;22.58;14.48;;;;;;;;;;5094986;28;20464;-47
2022/02/22 01:05:53;;;;;;;30.15;16.92;;;;;;;;;;5094888;28;20025;-46
2022/02/22 01:08:19;;;;;;;19.50;12.55;;;;;;;;;;5094808;28;20028;-45
2022/02/22 01:10:45;;;;;;;25.95;15.35;;;;;;;;;;5094685;28;20020;-47
2022/02/22 01:13:11;;;;;;;21.85;14.57;;;;;;;;;;5094801;28;20035;-47
2022/02/22 01:15:37;;;;;;;18.27;10.25;;;;;;;;;;5094577;28;20023;-48
2022/02/22 01:18:03;;;;;;;11.93;7.45;;;;;;;;;;5094695;28;20055;-46
2022/02/22 01:20:29;;;;;;;12.60;7.78;;;;;;;;;;5094708;28;20028;-48
2022/02/22 01:22:56;;;;;;;17.80;10.32;;;;;;;;;;5093298;28;20123;-46
2022/02/22 01:25:26;;;;;;;27.50;16.65;;;;;;;;;;5094424;28;20016;-46
2022/02/22 01:27:52;;;;;;;35.10;22.33;;;;;;;;;;5093115;28;20032;-46
2022/02/22 01:30:19;;;;;;;13.82;9.10;;;;;;;;;;5094129;28;20412;-45
2022/02/22 01:32:47;;;;;;;15.27;8.38;;;;;;;;;;5094399;28;20064;-47
2022/02/22 01:35:13;;;;;;;19.63;10.80;;;;;;;;;;5093694;28;20048;-45
2022/02/22 01:37:39;;;;;;;14.88;8.52;;;;;;;;;;5094311;28;20032;-49
2022/02/22 01:40:10;;;;;;;19.45;12.20;;;;;;;;;;5093062;28;20387;-46
2022/02/22 01:42:36;;;;;;;17.83;11.47;;;;;;;;;;5094274;28;20434;-49
2022/02/22 01:45:03;;;;;;;19.58;10.68;;;;;;;;;;5094208;28;20047;-47
2022/02/22 01:47:31;;;;;;;17.48;10.00;;;;;;;;;;5094074;28;20020;-48
2022/02/22 01:49:57;;;;;;;18.67;9.95;;;;;;;;;;5086437;28;20027;-48
2022/02/22 01:52:24;;;;;;;14.00;6.90;;;;;;;;;;5093915;28;20039;-46
2022/02/22 01:54:50;;;;;;;19.42;10.00;;;;;;;;;;5094093;28;20020;-46
2022/02/22 01:57:18;;;;;;;16.98;9.27;;;;;;;;;;5093864;28;20503;-47
2022/02/22 01:59:44;;;;;;;11.43;5.78;;;;;;;;;;5092755;28;20383;-44
2022/02/22 02:02:11;;;;;;;13.27;6.93;;;;;;;;;;5093863;28;20055;-45
2022/02/22 02:04:37;;;;;;;10.55;5.78;;;;;;;;;;5093845;28;20046;-45
2022/02/22 02:07:03;;;;;;;18.35;10.32;;;;;;;;;;5093933;28;20024;-49
2022/02/22 02:09:29;;;;;;;11.18;6.28;;;;;;;;;;5093714;28;20020;-45
2022/02/22 02:12:01;;;;;;;12.15;6.85;;;;;;;;;;5093933;28;20032;-46
2022/02/22 02:14:27;;;;;;;12.15;8.10;;;;;;;;;;5093959;28;20057;-47
2022/02/22 02:16:54;;;;;;;16.75;8.95;;;;;;;;;;5093545;28;20093;-48
2022/02/22 02:19:20;;;;;;;12.23;7.00;;;;;;;;;;5093725;28;20069;-47
2022/02/22 02:21:47;;;;;;;12.40;6.55;;;;;;;;;;5093589;28;20035;-48
2022/02/22 02:24:19;;;;;;;13.82;7.07;;;;;;;;;;5093455;28;20039;-48
2022/02/22 02:26:46;;;;;;;9.07;5.22;;;;;;;;;;5093711;28;20107;-45
2022/02/22 02:29:13;;;;;;;12.52;6.25;;;;;;;;;;5093221;28;20579;-47
2022/02/22 02:31:41;;;;;;;10.35;5.15;;;;;;;;;;5093408;28;20392;-48
2022/02/22 02:34:08;;;;;;;8.93;5.20;;;;;;;;;;5093463;28;20549;-47
2022/02/22 02:36:35;;;;;;;12.50;7.10;;;;;;;;;;5093570;28;20025;-45
2022/02/22 02:39:02;;;;;;;13.23;7.35;;;;;;;;;;5093376;28;20033;-47
2022/02/22 02:41:28;;;;;;;11.77;5.80;;;;;;;;;;5093441;28;20469;-48
2022/02/22 02:43:59;;;;;;;12.63;6.47;;;;;;;;;;5093483;28;20099;-48
2022/02/22 02:46:25;;;;;;;8.40;4.60;;;;;;;;;;5095125;28;20024;-47
2022/02/22 02:48:55;;;;;;;6.82;4.35;;;;;;;;;;5097661;28;20032;-48
2022/02/22 02:51:21;;;;;;;8.13;4.90;;;;;;;;;;5097488;28;20032;-49
2022/02/22 02:53:47;;;;;;;10.00;4.32;;;;;;;;;;5097398;28;20062;-48
2022/02/22 02:56:13;;;;;;;15.95;6.97;;;;;;;;;;5097377;28;20024;-46
2022/02/22 02:58:39;;;;;;;11.23;5.90;;;;;;;;;;5097396;28;20024;-46
2022/02/22 03:01:05;;;;;;;7.80;5.20;;;;;;;;;;5097191;28;20038;-47
2022/02/22 03:03:31;;;;;;;7.20;4.68;;;;;;;;;;5097259;28;20472;-48
2022/02/22 03:05:58;;;;;;;12.15;7.30;;;;;;;;;;5097258;28;20028;-47
2022/02/22 03:08:24;;;;;;;8.70;4.45;;;;;;;;;;5097133;28;20031;-47
2022/02/22 03:10:50;;;;;;;9.27;4.68;;;;;;;;;;5097194;28;20064;-47
2022/02/22 03:13:16;;;;;;;12.02;6.35;;;;;;;;;;5097136;28;20039;-47
2022/02/22 03:15:42;;;;;;;5.00;3.60;;;;;;;;;;5097191;28;20028;-48
2022/02/22 03:18:08;;;;;;;6.35;3.08;;;;;;;;;;5096968;28;20032;-48
2022/02/22 03:20:35;;;;;;;4.75;3.22;;;;;;;;;;5097013;28;20028;-48
2022/02/22 03:23:04;;;;;;;6.28;3.38;;;;;;;;;;5096894;28;20554;-48
2022/02/22 03:25:30;;;;;;;4.43;3.00;;;;;;;;;;5097041;28;20164;-48
2022/02/22 03:27:58;;;;;;;9.02;3.33;;;;;;;;;;5096956;28;20441;-48
2022/02/22 03:30:26;;;;;;;10.68;5.25;;;;;;;;;;5096599;28;20040;-46
2022/02/22 03:32:52;;;;;;;10.52;5.15;;;;;;;;;;5096637;28;20039;-46
2022/02/22 03:35:19;;;;;;;7.88;4.50;;;;;;;;;;5096590;28;20021;-48
2022/02/22 03:37:45;;;;;;;10.60;5.97;;;;;;;;;;5096554;28;20435;-46
2022/02/22 03:40:11;;;;;;;5.30;3.03;;;;;;;;;;5096812;28;20044;-48
2022/02/22 03:42:40;;;;;;;5.50;3.38;;;;;;;;;;5096736;28;20051;-47
2022/02/22 03:45:10;;;;;;;6.05;3.78;;;;;;;;;;5096436;28;20107;-48
2022/02/22 03:47:36;;;;;;;7.25;3.13;;;;;;;;;;5096402;28;20027;-47
2022/02/22 03:50:03;;;;;;;8.35;3.65;;;;;;;;;;5096422;28;20027;-47
2022/02/22 03:52:32;;;;;;;8.23;3.95;;;;;;;;;;5096178;28;20047;-47
2022/02/22 03:54:58;;;;;;;10.30;5.93;;;;;;;;;;5096329;28;20048;-47
2022/02/22 03:57:24;;;;;;;6.53;4.32;;;;;;;;;;5095739;28;20439;-47
2022/02/22 03:59:50;;;;;;;7.68;3.60;;;;;;;;;;5096304;28;20032;-48
2022/02/22 04:02:16;;;;;;;7.57;3.63;;;;;;;;;;5096117;28;20052;-48
2022/02/22 04:04:42;;;;;;;7.13;4.05;;;;;;;;;;5096109;28;20073;-48
2022/02/22 04:07:08;;;;;;;7.38;3.75;;;;;;;;;;5096015;28;20020;-47
2022/02/22 04:09:34;;;;;;;8.32;4.45;;;;;;;;;;5096006;28;20063;-46
2022/02/22 04:12:00;;;;;;;7.40;4.40;;;;;;;;;;5095869;28;20032;-48
2022/02/22 04:14:26;;;;;;;10.25;4.10;;;;;;;;;;5095955;28;20027;-48
2022/02/22 04:16:52;;;;;;;9.23;5.18;;;;;;;;;;5095744;28;20383;-48
2022/02/22 04:19:18;;;;;;;12.82;5.63;;;;;;;;;;5095965;28;20031;-48
2022/02/22 04:21:47;;;;;;;12.15;5.47;;;;;;;;;;5095677;28;20525;-48
2022/02/22 04:24:15;;;;;;;10.55;5.45;;;;;;;;;;5095778;28;20027;-48
2022/02/22 04:26:41;;;;;;;8.70;5.82;;;;;;;;;;5094505;28;20049;-47
2022/02/22 04:29:07;;;;;;;7.57;4.50;;;;;;;;;;5095309;28;20058;-47
2022/02/22 04:31:38;;;;;;;8.73;4.82;;;;;;;;;;5095467;28;20024;-48
2022/02/22 04:34:04;;;;;;;7.93;4.20;;;;;;;;;;5095601;28;20024;-47
2022/02/22 04:36:31;;;;;;;11.38;5.50;;;;;;;;;;5095387;28;20024;-47
2022/02/22 04:38:57;;;;;;;10.82;5.05;;;;;;;;;;5095383;28;20028;-48
2022/02/22 04:41:23;;;;;;;20.92;7.45;;;;;;;;;;5095606;28;20028;-49
2022/02/22 04:43:49;;;;;;;20.90;7.80;;;;;;;;;;5095498;28;20058;-48
2022/02/22 04:46:15;;;;;;;19.63;8.55;;;;;;;;;;5095312;28;20024;-47
2022/02/22 04:48:41;;;;;;;18.85;9.35;;;;;;;;;;5095209;28;20045;-46
2022/02/22 04:51:14;;;;;;;20.20;10.02;;;;;;;;;;5095257;28;20051;-48
2022/02/22 04:53:40;;;;;;;16.83;8.32;;;;;;;;;;5095029;28;20494;-47
2022/02/22 04:56:07;;;;;;;15.55;7.70;;;;;;;;;;5095183;28;20028;-47
2022/02/22 04:58:33;;;;;;;14.52;7.75;;;;;;;;;;5094884;28;20064;-46
2022/02/22 05:00:59;;;;;;;13.65;7.72;;;;;;;;;;5093954;28;20023;-46
2022/02/22 05:03:25;;;;;;;14.32;7.28;;;;;;;;;;5094951;28;20028;-47
2022/02/22 05:05:53;;;;;;;17.80;8.25;;;;;;;;;;5094857;28;20020;-46
2022/02/22 05:08:19;;;;;;;28.55;10.02;;;;;;;;;;5094904;28;20103;-46
2022/02/22 05:10:46;;;;;;;17.48;11.10;;;;;;;;;;5093900;28;20073;-47
2022/02/22 05:13:14;;;;;;;16.80;11.18;;;;;;;;;;5094817;28;20036;-48
2022/02/22 05:15:40;;;;;;;15.60;10.90;;;;;;;;;;5094817;28;20047;-47
2022/02/22 05:18:06;;;;;;;10.43;7.68;;;;;;;;;;5094626;28;20107;-46
2022/02/22 05:20:33;;;;;;;9.02;5.55;;;;;;;;;;5094774;28;20027;-47
2022/02/22 05:22:59;;;;;;;9.10;5.30;;;;;;;;;;5094602;28;20123;-47
2022/02/22 05:25:25;;;;;;;12.27;5.80;;;;;;;;;;5094517;28;20028;-46
2022/02/22 05:27:52;;;;;;;15.52;6.80;;;;;;;;;;5094518;28;20051;-48
2022/02/22 05:30:18;;;;;;;17.42;6.93;;;;;;;;;;5094120;28;20044;-46
2022/02/22 05:32:44;;;;;;;18.75;7.95;;;;;;;;;;5094245;28;20114;-46
2022/02/22 05:35:11;;;;;;;24.13;10.90;;;;;;;;;;5094227;28;20062;-47
2022/02/22 05:37:38;;;;;;;28.23;9.63;;;;;;;;;;5094078;28;20020;-47
2022/02/22 05:40:07;;;;;;;14.20;6.75;;;;;;;;;;5094329;28;20028;-46
2022/02/22 05:42:33;;;;;;;11.95;6.60;;;;;;;;;;5094138;28;20093;-47
2022/02/22 05:45:02;;;;;;;23.13;9.10;;;;;;;;;;5094107;28;20027;-47
2022/02/22 05:47:28;;;;;;;15.88;8.52;;;;;;;;;;5094022;28;20046;-46
2022/02/22 05:49:54;;;;;;;18.17;9.93;;;;;;;;;;5094045;28;20027;-47
2022/02/22 05:52:20;;;;;;;15.25;8.98;;;;;;;;;;5093835;28;20028;-52
2022/02/22 05:54:47;;;;;;;24.48;12.55;;;;;;;;;;5093326;28;20036;-47
2022/02/22 05:57:13;;;;;;;21.00;11.13;;;;;;;;;;5093543;28;20107;-45
2022/02/22 05:59:39;;;;;;;32.70;17.70;;;;;;;;;;5093170;28;20097;-45
2022/02/22 06:02:05;;;;;;;44.35;27.13;;;;;;;;;;5093286;28;20052;-50
2022/02/22 06:04:31;;;;;;;28.45;15.80;;;;;;;;;;5093716;28;20077;-47
2022/02/22 06:06:59;;;;;;;29.75;14.27;;;;;;;;;;5093784;28;20024;-45
2022/02/22 06:09:25;;;;;;;33.53;15.55;;;;;;;;;;5093916;28;20060;-45
2022/02/22 06:11:52;;;;;;;22.00;11.18;;;;;;;;;;5093876;28;20116;-47
2022/02/22 06:14:18;;;;;;;23.00;12.63;;;;;;;;;;5093935;28;20040;-48
2022/02/22 06:16:44;;;;;;;22.80;11.85;;;;;;;;;;5093799;28;20024;-45
2022/02/22 06:19:10;;;;;;;14.32;8.48;;;;;;;;;;5093780;28;20024;-47
2022/02/22 06:21:36;;;;;;;18.55;8.75;;;;;;;;;;5093296;28;20027;-47
2022/02/22 06:24:02;;;;;;;20.20;10.00;;;;;;;;;;5093659;28;20531;-47
2022/02/22 06:26:28;;;;;;;16.98;8.90;;;;;;;;;;5093819;28;20499;-48
2022/02/22 06:28:54;;;;;;;19.88;9.52;;;;;;;;;;5093138;28;20040;-47
2022/02/22 06:31:21;;;;;;;15.80;9.43;;;;;;;;;;5093655;28;20412;-47
2022/02/22 06:33:47;;;;;;;19.08;9.32;;;;;;;;;;5093393;28;20048;-47
2022/02/22 06:36:14;;;;;;;18.15;9.98;;;;;;;;;;5093332;28;20017;-47
2022/02/22 06:38:40;;;;;;;26.58;12.98;;;;;;;;;;5093345;28;20480;-47
2022/02/22 06:41:06;;;;;;;23.45;10.25;;;;;;;;;;5093487;28;20093;-47
2022/02/22 06:43:32;;;;;;;22.33;10.55;;;;;;;;;;5093392;28;20035;-47
2022/02/22 06:45:58;;;;;;;18.85;9.45;;;;;;;;;;5093410;28;20107;-47
2022/02/22 06:48:24;;;;;;;20.48;10.80;;;;;;;;;;5093438;28;20021;-47
2022/02/22 06:50:50;;;;;;;20.30;11.63;;;;;;;;;;5093368;28;20062;-47
2022/02/22 06:53:17;;;;;;;23.40;12.25;;;;;;;;;;5093247;28;20054;-47
2022/02/22 06:55:43;;;;;;;22.05;11.52;;;;;;;;;;5093727;28;20012;-46
2022/02/22 06:58:10;;;;;;;20.15;9.80;;;;;;;;;;5093616;28;20020;-46
2022/02/22 07:00:37;;;;;;;31.27;11.75;;;;;;;;;;5091685;28;20468;-46
2022/02/22 07:03:04;;;;;;;27.20;13.45;;;;;;;;;;5093338;28;20036;-47
2022/02/22 07:05:31;;;;;;;25.05;14.15;;;;;;;;;;5093313;28;20085;-47
2022/02/22 07:07:57;;;;;;;24.95;12.00;;;;;;;;;;5093298;28;20024;-48
2022/02/22 07:10:23;;;;;;;19.55;10.40;;;;;;;;;;5093409;28;20085;-47
2022/02/22 07:12:50;;;;;;;25.88;10.68;;;;;;;;;;5093351;28;20070;-46
2022/02/22 07:15:16;;;;;;;23.65;12.73;;;;;;;;;;5093551;28;20035;-46
2022/02/22 07:17:45;;;;;;;16.40;10.13;;;;;;;;;;5093219;28;20420;-45
2022/02/22 07:20:13;;;;;;;20.45;9.23;;;;;;;;;;5093311;28;20047;-44
2022/02/22 07:22:39;;;;;;;17.90;9.27;;;;;;;;;;5093101;28;20434;-47
2022/02/22 07:25:06;;;;;;;15.15;8.13;;;;;;;;;;5093010;28;20031;-45
2022/02/22 07:27:32;;;;;;;19.20;9.68;;;;;;;;;;5093304;28;20069;-45
2022/02/22 07:29:58;;;;;;;19.25;9.23;;;;;;;;;;5092971;28;20051;-45
2022/02/22 07:32:25;;;;;;;17.45;9.40;;;;;;;;;;5093126;28;20067;-45
2022/02/22 07:34:51;;;;;;;18.88;9.70;;;;;;;;;;5096804;28;20093;-45
2022/02/22 07:37:17;;;;;;;16.30;8.98;;;;;;;;;;5096637;28;20028;-46
2022/02/22 07:39:43;;;;;;;24.95;11.98;;;;;;;;;;5096843;28;20024;-44
2022/02/22 07:42:09;;;;;;;25.98;13.52;;;;;;;;;;5096851;28;20372;-44
2022/02/22 07:44:35;;;;;;;33.65;14.60;;;;;;;;;;5096885;28;20044;-45
2022/02/22 07:47:01;;;;;;;31.58;14.75;;;;;;;;;;5096731;28;20026;-45
2022/02/22 07:49:27;;;;;;;26.10;13.38;;;;;;;;;;5096750;28;20031;-45
2022/02/22 07:51:53;;;;;;;24.40;12.07;;;;;;;;;;5096589;28;20020;-45
2022/02/22 07:54:20;;;;;;;17.45;8.40;;;;;;;;;;5096803;28;20467;-46
2022/02/22 07:56:46;;;;;;;22.88;10.23;;;;;;;;;;5096775;28;20024;-43
2022/02/22 07:59:12;;;;;;;13.65;8.52;;;;;;;;;;5096565;28;20103;-45
2022/02/22 08:01:38;;;;;;;14.40;8.88;;;;;;;;;;5096494;28;20453;-45
2022/02/22 08:04:04;;;;;;;14.73;7.95;;;;;;;;;;5096466;28;20098;-45
2022/02/22 08:06:30;;;;;;;13.90;8.52;;;;;;;;;;5096199;28;20115;-45
2022/02/22 08:08:56;;;;;;;11.95;7.20;;;;;;;;;;5096078;28;20421;-45
2022/02/22 08:11:23;;;;;;;16.05;8.63;;;;;;;;;;5096253;28;20047;-45
2022/02/22 08:13:49;;;;;;;15.00;8.43;;;;;;;;;;5096252;28;20031;-46
2022/02/22 08:16:17;;;;;;;18.55;8.18;;;;;;;;;;5096290;28;20031;-46
2022/02/22 08:18:44;;;;;;;15.68;8.60;;;;;;;;;;5096006;28;20156;-45
2022/02/22 08:21:10;;;;;;;15.30;8.55;;;;;;;;;;5096028;28;20039;-46
2022/02/22 08:23:36;;;;;;;14.13;8.38;;;;;;;;;;5095709;28;20059;-44
2022/02/22 08:26:06;;;;;;;14.00;6.47;;;;;;;;;;5096139;28;20506;-45
2022/02/22 08:28:32;;;;;;;10.85;6.70;;;;;;;;;;5095914;28;20063;-45
2022/02/22 08:31:01;;;;;;;13.43;7.95;;;;;;;;;;5095928;28;20042;-46
2022/02/22 08:33:27;;;;;;;13.95;6.38;;;;;;;;;;5095679;28;20110;-45
2022/02/22 08:35:53;;;;;;;12.20;6.60;;;;;;;;;;5095860;28;20020;-45
2022/02/22 08:38:21;;;;;;;9.88;5.65;;;;;;;;;;5095552;28;20372;-45
2022/02/22 08:40:49;;;;;;;11.10;5.43;;;;;;;;;;5095767;28;20147;-44
2022/02/22 08:43:15;;;;;;;10.50;5.82;;;;;;;;;;5095630;28;20028;-45
2022/02/22 08:45:43;;;;;;;12.13;6.10;;;;;;;;;;5095568;28;20506;-45
2022/02/22 08:48:09;;;;;;;9.38;5.60;;;;;;;;;;5095415;28;20482;-45
2022/02/22 08:50:36;;;;;;;16.27;6.95;;;;;;;;;;5095545;28;20044;-44
2022/02/22 08:53:02;;;;;;;9.30;5.72;;;;;;;;;;5095214;28;20036;-45
2022/02/22 08:55:28;;;;;;;8.80;4.68;;;;;;;;;;5095256;28;20459;-45
2022/02/22 08:57:56;;;;;;;12.43;6.13;;;;;;;;;;5095144;28;20373;-45
2022/02/22 09:00:23;;;;;;;7.90;4.60;;;;;;;;;;5095118;28;20016;-45
2022/02/22 09:02:57;;;;;;;5.57;3.60;;;;;;;;;;5095126;28;20184;-45
2022/02/22 09:05:26;;;;;;;8.20;3.60;;;;;;;;;;5094934;28;20023;-44
2022/02/22 09:07:52;;;;;;;11.35;4.68;;;;;;;;;;5095091;28;20030;-44
2022/02/22 09:10:19;;;;;;;5.63;3.70;;;;;;;;;;5094993;28;20032;-45
2022/02/22 09:12:45;;;;;;;10.45;6.32;;;;;;;;;;5094780;28;20047;-44
2022/02/22 09:15:12;;;;;;;21.83;9.02;;;;;;;;;;5095086;28;20387;-45
2022/02/22 09:17:38;;;;;;;28.70;18.55;;;;;;;;;;5094758;28;20066;-44
2022/02/22 09:20:05;;;;;;;15.73;8.35;;;;;;;;;;5094622;28;20058;-45
2022/02/22 09:22:31;;;;;;;26.58;14.18;;;;;;;;;;5094918;28;20077;-44
2022/02/22 09:24:58;;;;;;;26.10;14.52;;;;;;;;;;5094764;28;20058;-44
2022/02/22 09:27:24;;;;;;;8.73;5.13;;;;;;;;;;5094890;28;20442;-45
2022/02/22 09:29:54;;;;;;;12.77;7.57;;;;;;;;;;5094238;28;20052;-44
2022/02/22 09:32:20;;;;;;;35.60;21.55;;;;;;;;;;5094370;28;20028;-45
2022/02/22 09:34:46;;;;;;;47.53;28.70;;;;;;;;;;5094420;28;20105;-45
2022/02/22 09:37:12;;;;;;;45.92;25.88;;;;;;;;;;5094389;28;20024;-45
2022/02/22 09:39:39;;;;;;;9.20;5.68;;;;;;;;;;5094349;28;20077;-45
2022/02/22 09:42:08;;;;;;;8.30;4.32;;;;;;;;;;5094174;28;20024;-46
2022/02/22 09:44:35;;;;;;;8.50;4.15;;;;;;;;;;5094327;28;20384;-46
2022/02/22 09:47:02;;;;;;;7.53;4.15;;;;;;;;;;5094281;28;20024;-47
2022/02/22 09:49:28;;;;;;;9.77;5.50;;;;;;;;;;5094063;28;20436;-45
2022/02/22 09:51:54;;;;;;;15.85;9.35;;;;;;;;;;5094268;28;20073;-44
2022/02/22 09:54:21;;;;;;;9.07;5.63;;;;;;;;;;5094236;28;20081;-44
2022/02/22 09:56:47;;;;;;;15.00;8.90;;;;;;;;;;5093800;28;20016;-44
2022/02/22 09:59:13;;;;;;;11.40;5.97;;;;;;;;;;5094109;28;20159;-46
2022/02/22 10:01:43;;;;;;;14.00;8.07;;;;;;;;;;5093260;28;20032;-47
2022/02/22 10:04:10;;;;;;;8.77;4.68;;;;;;;;;;5093100;28;20494;-46
2022/02/22 10:06:36;;;;;;;10.05;6.40;;;;;;;;;;5093098;28;20024;-46
2022/02/22 10:09:03;;;;;;;15.32;7.82;;;;;;;;;;5093311;28;20023;-45
2022/02/22 10:11:30;;;;;;;19.63;10.40;;;;;;;;;;5092868;28;20023;-54
2022/02/22 10:14:03;;;;;;;60.70;35.00;;;;;;;;;;5092949;28;20089;-45
2022/02/22 10:16:40;;;;;;;43.47;24.55;;;;;;;;;;5092632;28;20016;-46
2022/02/22 10:19:06;;;;;;;20.08;12.63;;;;;;;;;;5093275;28;20040;-45
2022/02/22 10:21:42;;;;;;;20.25;12.82;;;;;;;;;;5092380;28;20395;-47
2022/02/22 10:24:12;;;;;;;24.88;14.23;;;;;;;;;;5093609;28;20024;-45
2022/02/22 10:26:39;;;;;;;32.50;17.95;;;;;;;;;;5093626;28;20048;-47
2022/02/22 10:29:15;;;;;;;29.95;16.95;;;;;;;;;;5093362;28;20436;-50
2022/02/22 10:31:41;;;;;;;14.13;6.78;;;;;;;;;;5093734;28;20476;-46
2022/02/22 10:34:08;;;;;;;14.57;9.10;;;;;;;;;;5093597;28;20115;-47
2022/02/22 10:36:37;;;;;;;8.45;4.57;;;;;;;;;;5093477;28;20027;-48
2022/02/22 10:39:10;;;;;;;10.00;5.53;;;;;;;;;;5093508;28;20073;-47
2022/02/22 10:41:46;;;;;;;11.00;6.30;;;;;;;;;;5089714;28;20048;-46
2022/02/22 10:44:13;;;;;;;10.18;4.97;;;;;;;;;;5092367;28;20024;-44
2022/02/22 10:46:45;;;;;;;10.23;3.50;;;;;;;;;;5093384;28;20061;-54
2022/02/22 10:49:14;;;;;;;12.88;6.60;;;;;;;;;;5093525;28;20031;-52
2022/02/22 10:51:42;;;;;;;14.93;6.78;;;;;;;;;;5093355;28;20471;-48
2022/02/22 10:54:10;;;;;;;9.15;4.43;;;;;;;;;;5093400;28;20567;-49
2022/02/22 10:56:36;;;;;;;12.70;7.07;;;;;;;;;;5093238;28;20032;-51
2022/02/22 10:59:04;;;;;;;11.18;5.88;;;;;;;;;;5093227;28;20032;-52
2022/02/22 11:01:30;;;;;;;5.57;3.38;;;;;;;;;;5093402;28;20023;-49
2022/02/22 11:03:56;;;;;;;12.38;6.10;;;;;;;;;;5093437;28;20027;-48
2022/02/22 11:06:23;;;;;;;12.32;4.65;;;;;;;;;;5093216;28;20035;-44
2022/02/22 11:08:50;;;;;;;16.58;7.88;;;;;;;;;;5097290;28;20046;-46
2022/02/22 11:11:18;;;;;;;8.98;3.38;;;;;;;;;;5096800;28;20031;-46
2022/02/22 11:13:55;;;;;;;9.27;5.55;;;;;;;;;;5096970;28;20032;-44
2022/02/22 11:16:21;;;;;;;16.83;8.32;;;;;;;;;;5097327;28;20375;-47
2022/02/22 11:18:51;;;;;;;19.95;11.82;;;;;;;;;;5097157;28;20027;-46
2022/02/22 11:21:18;;;;;;;26.13;13.57;;;;;;;;;;5097118;28;20021;-46
2022/02/22 11:23:44;;;;;;;26.33;12.50;;;;;;;;;;5097006;28;20099;-44
2022/02/22 11:26:19;;;;;;;31.65;11.65;;;;;;;;;;5096747;28;20384;-45
2022/02/22 11:28:45;;;;;;;13.70;6.15;;;;;;;;;;5096651;28;20392;-45
2022/02/22 11:31:12;;;;;;;14.40;6.72;;;;;;;;;;5096590;28;20044;-48
2022/02/22 11:33:42;;;;;;;19.73;11.40;;;;;;;;;;5095287;28;20424;-47
2022/02/22 11:36:08;;;;;;;12.48;6.75;;;;;;;;;;5096808;28;20024;-46
2022/02/22 11:38:44;;;;;;;14.75;7.72;;;;;;;;;;5096659;28;20024;-44
2022/02/22 11:41:17;;;;;;;10.15;6.43;;;;;;;;;;5096379;28;20024;-44
2022/02/22 11:44:03;;;;;;;21.35;12.55;;;;;;;;;;5096660;28;20049;-46
2022/02/22 11:46:44;;;;;;;15.43;8.80;;;;;;;;;;5096427;28;20020;-43
2022/02/22 11:49:11;;;;;;;26.35;15.68;;;;;;;;;;5096640;28;20028;-46
2022/02/22 11:51:46;;;;;;;22.42;13.20;;;;;;;;;;5096397;28;20016;-45
2022/02/22 11:54:13;;;;;;;22.25;13.77;;;;;;;;;;5096460;28;20040;-46
2022/02/22 11:56:39;;;;;;;15.77;8.88;;;;;;;;;;5092976;28;20667;-44
2022/02/22 11:59:19;;;;;;;28.52;15.50;;;;;;;;;;5081978;28;20116;-43
2022/02/22 12:01:46;;;;;;;20.98;11.82;;;;;;;;;;5116335;28;20055;-43
2022/02/22 12:04:23;;;;;;;22.75;13.52;;;;;;;;;;5116298;28;20019;-44
2022/02/22 12:06:53;;;;;;;16.30;8.93;;;;;;;;;;5098263;28;20031;-45
2022/02/22 12:09:19;;;;;;;20.95;9.80;;;;;;;;;;5116154;28;20032;-44
2022/02/22 12:11:46;;;;;;;21.08;12.68;;;;;;;;;;5131354;27;20106;-43
2022/02/22 12:14:14;;;;;;;15.43;8.90;;;;;;;;;;5136793;27;20154;-46
2022/02/22 12:16:44;;;;;;;16.95;8.60;;;;;;;;;;5118102;27;20681;-46
2022/02/22 12:19:13;;;;;;;7.82;3.63;;;;;;;;;;5135960;27;20015;-45
2022/02/22 12:21:40;;;;;;;21.30;10.45;;;;;;;;;;5136303;27;20152;-47
2022/02/22 12:24:11;;;;;;;13.20;5.68;;;;;;;;;;5136408;27;20079;-47
2022/02/22 12:26:38;;;;;;;23.42;6.80;;;;;;;;;;5136461;27;20016;-52
2022/02/22 12:29:07;;;;;;;22.50;9.07;;;;;;;;;;5135859;27;20027;-48
2022/02/22 12:31:34;;;;;;;10.35;4.72;;;;;;;;;;5136085;27;20031;-48
2022/02/22 12:34:04;;;;;;;11.57;6.93;;;;;;;;;;5136000;27;20056;-48
2022/02/22 12:36:30;;;;;;;10.43;5.47;;;;;;;;;;5136588;27;20449;-48
2022/02/22 12:39:04;;;;;;;7.10;4.03;;;;;;;;;;5136062;27;20088;-47
2022/02/22 12:41:34;;;;;;;13.27;6.70;;;;;;;;;;5135995;27;20015;-48
2022/02/22 12:44:00;;;;;;;15.77;6.90;;;;;;;;;;5136029;27;20027;-47
2022/02/22 12:46:26;;;;;;;13.75;7.95;;;;;;;;;;5135995;27;20025;-48
2022/02/22 12:48:55;;;;;;;11.05;5.40;;;;;;;;;;5136157;27;20483;-46
2022/02/22 12:51:30;;;;;;;13.73;5.85;;;;;;;;;;5136031;27;20088;-48
2022/02/22 12:53:57;;;;;;;14.80;5.75;;;;;;;;;;5134988;27;20031;-48
2022/02/22 12:56:31;;;;;;;13.63;6.75;;;;;;;;;;5101170;28;20031;-46
2022/02/22 12:58:57;;;;;;;16.42;7.45;;;;;;;;;;5113728;28;20070;-48
2022/02/22 13:01:23;;;;;;;52.80;30.40;;;;;;;;;;5113508;28;20023;-43
2022/02/22 13:03:51;;;;;;;26.58;14.48;;;;;;;;;;5113765;28;20123;-48
2022/02/22 13:06:17;;;;;;;33.50;18.15;;;;;;;;;;5115016;28;20027;-49
2022/02/22 13:08:45;;;;;;;26.35;11.98;;;;;;;;;;5115263;28;20430;-45
2022/02/22 13:11:11;;;;;;;36.55;18.63;;;;;;;;;;5115296;28;20019;-45
2022/02/22 13:13:38;;;;;;;18.52;8.55;;;;;;;;;;5114595;28;20126;-48
2022/02/22 13:16:14;;;;;;;24.45;11.57;;;;;;;;;;5114937;28;20026;-47
2022/02/22 13:18:55;;;;;;;22.83;11.77;;;;;;;;;;5114717;28;20382;-48
2022/02/22 13:21:22;;;;;;;18.83;10.60;;;;;;;;;;5114645;28;20030;-47
2022/02/22 13:23:48;;;;;;;24.73;10.73;;;;;;;;;;5114430;28;20427;-47
2022/02/22 13:26:15;;;;;;;22.48;9.25;;;;;;;;;;5114927;28;20103;-48
2022/02/22 13:28:42;;;;;;;12.85;6.78;;;;;;;;;;5096210;28;20364;-47
2022/02/22 13:31:14;;;;;;;8.07;3.42;;;;;;;;;;5113517;28;20130;-47
2022/02/22 13:33:40;;;;;;;38.60;21.38;;;;;;;;;;5114500;28;20118;-50
2022/02/22 13:36:18;;;;;;;22.90;11.98;;;;;;;;;;5114634;28;20020;-48
2022/02/22 13:38:54;;;;;;;13.07;6.30;;;;;;;;;;5114384;28;20053;-48
2022/02/22 13:41:23;;;;;;;11.10;6.13;;;;;;;;;;5114564;28;20024;-47
2022/02/22 13:43:50;;;;;;;8.25;4.10;;;;;;;;;;5114349;28;20521;-48
2022/02/22 13:46:16;;;;;;;8.13;3.50;;;;;;;;;;5114429;28;20125;-47
2022/02/22 13:48:42;;;;;;;9.88;4.60;;;;;;;;;;5113905;27;20028;-47
2022/02/22 13:51:09;;;;;;;6.10;3.17;;;;;;;;;;5095457;28;20380;-47
2022/02/22 13:53:36;;;;;;;10.15;4.30;;;;;;;;;;5114177;28;20038;-47
2022/02/22 13:56:09;;;;;;;8.50;4.20;;;;;;;;;;5114054;28;20019;-47
2022/02/22 13:58:35;;;;;;;16.70;6.20;;;;;;;;;;5113931;28;20035;-46
2022/02/22 14:01:03;;;;;;;13.10;5.10;;;;;;;;;;5113579;28;20042;-49
2022/02/22 14:03:29;;;;;;;14.68;5.90;;;;;;;;;;5113774;28;20363;-48
2022/02/22 14:05:57;;;;;;;8.65;3.95;;;;;;;;;;5114313;28;20026;-45
2022/02/22 14:08:23;;;;;;;9.20;3.28;;;;;;;;;;5113638;28;20467;-46
2022/02/22 14:10:49;;;;;;;9.85;3.90;;;;;;;;;;5113709;28;20481;-47
2022/02/22 14:13:16;;;;;;;9.50;3.00;;;;;;;;;;5113669;28;20038;-45
2022/02/22 14:15:43;;;;;;;12.50;5.72;;;;;;;;;;5113569;28;20031;-49
2022/02/22 14:18:11;;;;;;;16.27;5.35;;;;;;;;;;5113538;28;20387;-48
2022/02/22 14:20:37;;;;;;;19.73;6.78;;;;;;;;;;5113804;28;20153;-49
2022/02/22 14:23:05;;;;;;;18.30;7.88;;;;;;;;;;5113635;28;20482;-47
2022/02/22 14:25:32;;;;;;;18.65;7.50;;;;;;;;;;5113491;28;20028;-46
2022/02/22 14:28:02;;;;;;;16.58;6.53;;;;;;;;;;5113344;28;20115;-46
2022/02/22 14:30:30;;;;;;;13.98;4.45;;;;;;;;;;5113536;28;20070;-47